Time;durP1;ratioP1;P1;durP2;ratioP2;P2;SDS_P1;SDS_P2;PMS_P1;PMS_P2;Temp;Humidity;BMP_temperature;BMP_pressure;BME280_temperature;BME280_humidity;BME280_pressure;Samples;Min_cycle;Max_cycle;Signal;HPM_P1;HPM_P2
2021/07/28 00:00:52;;;;;;;14.82;7.75;;;;;;;18.14;100.00;97388.38;5051064;28;20041;-79
2021/07/28 00:03:18;;;;;;;13.63;7.65;;;;;;;18.18;100.00;97382.94;5037082;28;20053;-78
2021/07/28 00:05:45;;;;;;;11.43;7.70;;;;;;;18.13;100.00;97386.00;5041154;28;20484;-77
2021/07/28 00:08:12;;;;;;;12.70;7.55;;;;;;;18.13;100.00;97386.78;5031680;28;20041;-81
2021/07/28 00:10:39;;;;;;;12.15;8.35;;;;;;;18.12;100.00;97392.66;5014548;28;20100;-80
2021/07/28 00:13:06;;;;;;;14.63;7.93;;;;;;;18.12;100.00;97392.66;5032355;28;20037;-79
2021/07/28 00:15:32;;;;;;;10.35;7.68;;;;;;;18.13;100.00;97397.75;5015365;28;20091;-81
2021/07/28 00:18:04;;;;;;;10.77;7.45;;;;;;;18.11;100.00;97389.13;5014422;28;20043;-80
2021/07/28 00:23:14;;;;;;;15.75;8.48;;;;;;;18.09;100.00;97396.13;5031350;28;20060;-79
2021/07/28 00:25:47;;;;;;;15.25;8.10;;;;;;;18.11;100.00;97388.31;5031651;28;20045;-82
2021/07/28 00:28:14;;;;;;;11.98;8.00;;;;;;;18.09;100.00;97394.19;5031712;28;20064;-78
2021/07/28 00:30:42;;;;;;;12.93;8.02;;;;;;;18.14;100.00;97384.84;5031330;28;20052;-80
2021/07/28 00:33:09;;;;;;;12.73;8.02;;;;;;;18.14;100.00;97382.91;5013393;28;20553;-80
2021/07/28 00:35:35;;;;;;;11.05;8.07;;;;;;;18.15;100.00;97375.44;5032001;28;20041;-82
2021/07/28 00:38:03;;;;;;;11.88;7.85;;;;;;;18.18;100.00;97378.25;5032143;28;20064;-82
2021/07/28 00:40:30;;;;;;;10.55;7.50;;;;;;;18.16;100.00;97369.63;5014041;28;20049;-77
2021/07/28 00:43:14;;;;;;;11.55;7.43;;;;;;;18.14;100.00;97374.69;5010876;28;20124;-80
2021/07/28 00:45:44;;;;;;;10.98;7.13;;;;;;;18.16;100.00;97366.88;5023461;28;20120;-81
2021/07/28 00:48:14;;;;;;;14.13;8.40;;;;;;;18.14;100.00;97362.94;5031868;28;20041;-79
2021/07/28 00:50:41;;;;;;;11.40;8.27;;;;;;;18.09;100.00;97366.00;5030888;28;20045;-82
2021/07/28 00:53:17;;;;;;;11.35;7.80;;;;;;;18.07;100.00;97360.09;5014740;28;20510;-81
2021/07/28 00:55:45;;;;;;;18.52;8.40;;;;;;;18.10;100.00;97367.56;5032138;28;20045;-81
2021/07/28 00:58:13;;;;;;;14.88;8.45;;;;;;;18.11;100.00;97369.16;5014006;28;20053;-81
2021/07/28 01:00:40;;;;;;;12.38;8.40;;;;;;;18.12;100.00;97379.72;5029507;28;20037;-81
2021/07/28 01:03:07;;;;;;;14.43;7.97;;;;;;;18.14;100.00;97379.38;5037345;28;20072;-80
2021/07/28 01:05:34;;;;;;;12.27;8.23;;;;;;;18.13;100.00;97372.28;5052889;28;20128;-80
2021/07/28 01:08:05;;;;;;;14.75;8.23;;;;;;;18.16;100.00;97368.81;5070313;28;20051;-80
2021/07/28 01:10:32;;;;;;;14.52;8.07;;;;;;;18.21;100.00;97374.78;5054454;28;20122;-79
2021/07/28 01:13:02;;;;;;;11.73;8.18;;;;;;;18.17;100.00;97367.66;5052842;28;20049;-78
2021/07/28 01:15:39;;;;;;;13.23;7.75;;;;;;;18.21;100.00;97365.75;5050883;28;20052;-79
2021/07/28 01:18:08;;;;;;;12.48;7.72;;;;;;;18.26;100.00;97366.22;5049891;28;20041;-80
2021/07/28 01:20:38;;;;;;;13.95;7.95;;;;;;;18.28;100.00;97355.69;5052201;28;20041;-81
2021/07/28 01:23:10;;;;;;;12.57;7.85;;;;;;;18.28;100.00;97361.16;5054877;28;20049;-80
2021/07/28 01:25:38;;;;;;;13.50;8.55;;;;;;;18.36;100.00;97359.31;5070634;28;20041;-80
2021/07/28 01:28:06;;;;;;;12.02;8.23;;;;;;;18.39;100.00;97362.09;5056497;28;20095;-81
2021/07/28 01:30:34;;;;;;;14.13;8.40;;;;;;;18.42;100.00;97368.78;5056514;28;20040;-80
2021/07/28 01:33:02;;;;;;;13.90;8.65;;;;;;;18.45;100.00;97366.06;5073720;28;20049;-80
2021/07/28 01:35:31;;;;;;;12.82;8.65;;;;;;;18.43;100.00;97351.94;5055685;28;20045;-79
2021/07/28 01:37:57;;;;;;;12.52;8.55;;;;;;;18.50;100.00;97363.06;5071987;28;20049;-80
2021/07/28 01:40:24;;;;;;;12.90;8.70;;;;;;;18.50;100.00;97368.53;5071082;28;20056;-80
2021/07/28 01:42:50;;;;;;;12.70;8.63;;;;;;;18.55;100.00;97430.47;5055569;28;20103;-84
2021/07/28 01:45:17;;;;;;;12.93;7.90;;;;;;;18.78;100.00;97428.44;5054726;28;20072;-84
2021/07/28 01:47:47;;;;;;;11.80;7.55;;;;;;;19.02;100.00;97421.66;5052987;28;20048;-82
2021/07/28 01:50:14;;;;;;;14.18;8.40;;;;;;;18.98;100.00;97421.63;5053705;28;20052;-83
2021/07/28 01:52:41;;;;;;;18.35;8.50;;;;;;;18.89;100.00;97420.31;5054528;28;20107;-83
2021/07/28 01:55:09;;;;;;;13.15;9.05;;;;;;;18.79;100.00;97430.00;5068203;28;20049;-85
2021/07/28 01:57:52;;;;;;;19.40;9.35;;;;;;;18.63;100.00;97443.13;5053208;28;20037;-84
2021/07/28 02:00:19;;;;;;;15.23;9.80;;;;;;;18.49;100.00;97457.41;5054311;28;20060;-84
2021/07/28 02:02:46;;;;;;;13.65;9.45;;;;;;;18.39;100.00;97459.97;5068571;28;20049;-85
2021/07/28 02:05:13;;;;;;;18.58;10.32;;;;;;;18.26;100.00;97473.09;5036048;28;20056;-85
2021/07/28 02:07:41;;;;;;;16.83;10.02;;;;;;;18.10;100.00;97469.72;5054256;28;20095;-85
2021/07/28 02:10:08;;;;;;;20.10;11.82;;;;;;;17.92;100.00;97480.38;5061638;23;20056;-78
2021/07/28 02:12:36;;;;;;;18.55;12.18;;;;;;;17.75;100.00;97482.84;5066270;28;20084;-78
2021/07/28 02:15:04;;;;;;;20.70;12.32;;;;;;;17.57;100.00;97485.25;5034031;28;20062;-78
2021/07/28 02:17:31;;;;;;;22.55;14.07;;;;;;;17.42;100.00;97486.91;5067120;28;20038;-79
2021/07/28 02:19:58;;;;;;;20.40;13.75;;;;;;;17.31;100.00;97485.94;5063427;28;20055;-78
2021/07/28 02:22:24;;;;;;;23.08;14.93;;;;;;;17.25;100.00;97479.16;5054676;28;20060;-81
2021/07/28 02:24:51;;;;;;;27.02;15.45;;;;;;;17.22;100.00;97479.88;5069700;28;20641;-81
2021/07/28 02:27:17;;;;;;;26.98;15.30;;;;;;;17.17;100.00;97473.91;5053611;28;20098;-82
2021/07/28 02:29:47;;;;;;;24.27;15.50;;;;;;;17.18;100.00;97486.44;5053884;28;20144;-82
2021/07/28 02:32:13;;;;;;;27.08;15.73;;;;;;;17.16;100.00;97472.34;5037438;28;20053;-82
2021/07/28 02:34:40;;;;;;;26.73;16.27;;;;;;;17.26;100.00;97480.75;5038078;28;20041;-83
2021/07/28 02:37:10;;;;;;;24.92;16.60;;;;;;;17.09;100.00;97458.50;5054347;28;20049;-82
2021/07/28 02:39:36;;;;;;;23.15;15.80;;;;;;;17.13;100.00;97460.16;5070327;28;20049;-82
2021/07/28 02:42:03;;;;;;;27.30;16.33;;;;;;;17.23;100.00;97462.31;5057182;28;20045;-84
2021/07/28 02:44:31;;;;;;;25.40;15.10;;;;;;;17.27;100.00;97457.69;5058106;28;20057;-83
2021/07/28 02:47:00;;;;;;;25.00;15.20;;;;;;;17.31;100.00;97457.78;5060025;28;20105;-83
2021/07/28 02:49:27;;;;;;;24.73;15.45;;;;;;;17.28;100.00;97445.59;5053007;28;20060;-82
2021/07/28 02:51:54;;;;;;;24.05;15.73;;;;;;;17.26;100.00;97441.66;5036898;28;20041;-83
2021/07/28 02:54:22;;;;;;;26.52;16.25;;;;;;;17.16;100.00;97434.03;5036078;28;20139;-82
2021/07/28 02:56:50;;;;;;;25.20;16.38;;;;;;;17.21;100.00;97440.00;5052824;28;20037;-82
2021/07/28 02:59:16;;;;;;;26.92;17.08;;;;;;;17.20;100.00;97435.69;5074322;28;20132;-83
2021/07/28 03:01:43;;;;;;;24.40;16.88;;;;;;;17.17;100.00;97450.06;5057059;28;20119;-83
2021/07/28 03:04:12;;;;;;;29.00;17.13;;;;;;;17.13;100.00;97443.75;5054542;28;20363;-82
2021/07/28 03:06:39;;;;;;;31.65;18.17;;;;;;;17.15;100.00;97446.13;5036409;28;20052;-83
2021/07/28 03:09:08;;;;;;;29.25;17.08;;;;;;;17.18;100.00;97440.72;5053151;28;20055;-82
2021/07/28 03:11:35;;;;;;;32.42;17.90;;;;;;;17.02;100.00;97434.53;5070438;28;20053;-83
2021/07/28 03:14:01;;;;;;;34.63;17.70;;;;;;;17.00;100.00;97441.53;5053198;28;20045;-83
2021/07/28 03:16:29;;;;;;;28.75;17.60;;;;;;;16.97;100.00;97443.03;5052274;28;20045;-81
2021/07/28 03:18:58;;;;;;;28.20;19.17;;;;;;;16.91;100.00;97438.22;5035527;28;20433;-81
2021/07/28 03:21:27;;;;;;;30.15;18.25;;;;;;;16.86;100.00;97420.16;5052399;28;20052;-83
2021/07/28 03:23:54;;;;;;;31.63;18.75;;;;;;;16.78;100.00;97430.16;5036035;28;20075;-82
2021/07/28 03:26:21;;;;;;;33.83;19.98;;;;;;;16.79;100.00;97436.44;5051887;28;20041;-83
2021/07/28 03:28:48;;;;;;;31.83;20.10;;;;;;;16.86;100.00;97444.78;5052164;28;20045;-83
2021/07/28 03:31:14;;;;;;;38.72;20.73;;;;;;;16.92;100.00;97448.00;5051681;28;20044;-81
2021/07/28 03:33:41;;;;;;;28.25;19.13;;;;;;;16.95;100.00;97445.34;5055959;28;20091;-82
2021/07/28 03:36:08;;;;;;;29.10;19.27;;;;;;;16.93;100.00;97439.44;5052708;28;20147;-82
2021/07/28 03:38:37;;;;;;;33.20;19.35;;;;;;;17.01;100.00;97446.63;5051716;28;20489;-82
2021/07/28 03:41:03;;;;;;;29.20;19.23;;;;;;;17.07;100.00;97441.66;5035258;28;20417;-83
2021/07/28 03:43:30;;;;;;;36.85;19.42;;;;;;;17.06;100.00;97440.09;5034426;28;20057;-83
2021/07/28 03:46:00;;;;;;;42.90;21.88;;;;;;;17.11;100.00;97439.81;5065139;28;20069;-84
2021/07/28 03:48:31;;;;;;;30.58;18.77;;;;;;;17.03;100.00;97447.09;5057710;28;20033;-84
2021/07/28 03:51:00;;;;;;;32.83;19.05;;;;;;;17.04;100.00;97462.31;5075552;28;20057;-83
2021/07/28 03:53:27;;;;;;;30.80;18.90;;;;;;;17.02;100.00;97453.69;5091550;28;20121;-84
2021/07/28 03:55:57;;;;;;;29.65;18.45;;;;;;;17.05;100.00;97454.91;5072731;28;20037;-82
2021/07/28 03:58:25;;;;;;;28.42;17.90;;;;;;;17.04;100.00;97445.13;5072569;28;20198;-82
2021/07/28 04:00:53;;;;;;;31.10;18.90;;;;;;;17.10;100.00;97449.94;5086982;28;20040;-82
2021/07/28 04:03:23;;;;;;;29.98;18.75;;;;;;;17.09;100.00;97442.88;5055071;28;20080;-81
2021/07/28 04:05:53;;;;;;;27.90;17.85;;;;;;;17.12;100.00;97444.09;5060569;28;20071;-80
2021/07/28 04:08:22;;;;;;;27.83;18.50;;;;;;;17.19;100.00;97453.22;5055446;28;20083;-76
2021/07/28 04:10:49;;;;;;;31.85;19.88;;;;;;;17.18;100.00;97445.41;5033089;28;20049;-76
2021/07/28 04:13:15;;;;;;;27.55;18.08;;;;;;;17.21;100.00;97450.94;5033146;28;20056;-77
2021/07/28 04:15:43;;;;;;;30.30;18.35;;;;;;;17.23;100.00;97445.91;5012988;28;20049;-77
2021/07/28 04:18:10;;;;;;;33.33;18.63;;;;;;;17.24;100.00;97450.19;5031982;28;20077;-76
2021/07/28 04:20:38;;;;;;;30.10;18.48;;;;;;;17.28;100.00;97456.53;5034459;28;20045;-81
2021/07/28 04:23:05;;;;;;;33.13;19.52;;;;;;;17.35;100.00;97467.63;5031853;28;20072;-82
2021/07/28 04:25:31;;;;;;;33.17;19.02;;;;;;;17.36;100.00;97452.78;5040642;28;20046;-82
2021/07/28 04:27:58;;;;;;;28.70;17.67;;;;;;;17.38;100.00;97438.72;5015810;28;20559;-82
2021/07/28 04:30:25;;;;;;;27.95;17.42;;;;;;;17.54;100.00;97446.88;5032759;28;20072;-82
2021/07/28 04:32:57;;;;;;;27.92;17.55;;;;;;;17.56;100.00;97439.88;5014863;28;20144;-82
2021/07/28 04:35:34;;;;;;;28.90;17.92;;;;;;;17.57;100.00;97440.66;5016650;28;20061;-83
2021/07/28 04:38:01;;;;;;;30.95;16.52;;;;;;;17.57;100.00;97433.25;5026407;28;20049;-84
2021/07/28 04:40:28;;;;;;;25.38;15.80;;;;;;;17.58;100.00;97432.06;5000115;28;20060;-83
2021/07/28 04:43:00;;;;;;;27.20;15.15;;;;;;;17.70;100.00;97429.19;5031692;28;20040;-82
2021/07/28 04:45:30;;;;;;;;;;;;;;;17.85;100.00;97430.97;5016278;28;20049;-83
2021/07/28 04:50:57;;;;;;;21.13;13.55;;;;;;;17.91;100.00;97436.94;5170483;23;20065;-79
2021/07/28 04:53:30;;;;;;;23.33;12.95;;;;;;;17.98;100.00;97437.06;5029141;28;20045;-81
2021/07/28 04:55:58;;;;;;;19.38;12.52;;;;;;;18.02;100.00;97430.47;5044313;28;20124;-80
2021/07/28 04:58:25;;;;;;;21.02;11.57;;;;;;;18.08;100.00;97439.16;5023111;28;20412;-80
2021/07/28 05:00:52;;;;;;;17.35;12.20;;;;;;;18.09;100.00;97435.28;5023805;28;20042;-79
2021/07/28 05:03:19;;;;;;;17.88;11.30;;;;;;;18.02;100.00;97429.66;5068892;23;20404;-84
2021/07/28 05:05:46;;;;;;;16.10;11.60;;;;;;;18.03;100.00;97414.81;4995907;28;20516;-84
2021/07/28 05:08:13;;;;;;;15.75;11.35;;;;;;;17.99;100.00;97417.50;4996307;28;20042;-83
2021/07/28 05:10:39;;;;;;;17.05;11.40;;;;;;;18.12;100.00;97415.34;5013409;28;20505;-85
2021/07/28 05:13:06;;;;;;;19.95;11.35;;;;;;;18.25;100.00;97432.34;5001015;28;20050;-86
2021/07/28 05:15:32;;;;;;;16.92;11.05;;;;;;;18.32;100.00;97422.31;4976094;28;20042;-85
2021/07/28 05:17:59;;;;;;;20.10;10.80;;;;;;;18.35;100.00;97424.28;4992397;28;20490;-84
2021/07/28 05:20:26;;;;;;;17.52;10.30;;;;;;;18.38;100.00;97423.56;4976382;28;20468;-85
2021/07/28 05:22:52;;;;;;;17.80;11.10;;;;;;;18.41;100.00;97425.56;4976838;28;20416;-85
2021/07/28 05:25:19;;;;;;;17.40;11.35;;;;;;;18.49;100.00;97434.69;4992378;28;20065;-86
2021/07/28 05:27:46;;;;;;;17.75;10.65;;;;;;;18.63;100.00;97415.72;4976261;28;20405;-85
2021/07/28 05:30:15;;;;;;;14.60;10.77;;;;;;;18.67;100.00;97406.34;4993314;28;20058;-85
2021/07/28 05:32:41;;;;;;;18.13;11.15;;;;;;;18.80;100.00;97406.09;4975355;28;20651;-86
2021/07/28 05:35:08;;;;;;;17.60;11.23;;;;;;;18.96;100.00;97412.16;4993202;28;20051;-84
2021/07/28 05:37:35;;;;;;;19.13;10.90;;;;;;;18.98;100.00;97399.66;4993009;28;20042;-84
2021/07/28 05:40:02;;;;;;;15.65;10.80;;;;;;;19.12;100.00;97408.03;4975304;28;20069;-83
2021/07/28 05:42:28;;;;;;;16.10;10.80;;;;;;;19.21;100.00;97418.72;4992810;28;20481;-85
2021/07/28 05:44:55;;;;;;;16.27;10.55;;;;;;;19.17;100.00;97404.97;4993609;28;20038;-84
2021/07/28 05:47:24;;;;;;;18.27;9.98;;;;;;;19.10;100.00;97390.38;4994927;28;20516;-85
2021/07/28 05:49:51;;;;;;;12.88;9.35;;;;;;;19.15;100.00;97404.53;4996785;28;20050;-85
2021/07/28 05:52:18;;;;;;;16.90;9.80;;;;;;;19.14;100.00;97405.72;4978426;28;20046;-86
2021/07/28 05:54:44;;;;;;;15.48;8.95;;;;;;;19.18;100.00;97405.75;4997081;28;20054;-85
2021/07/28 05:57:11;;;;;;;13.27;9.23;;;;;;;19.32;100.00;97419.63;4996840;28;20042;-84
2021/07/28 05:59:37;;;;;;;15.18;9.43;;;;;;;19.44;100.00;97435.84;4989155;28;20046;-85
2021/07/28 06:02:04;;;;;;;12.45;9.25;;;;;;;19.48;100.00;97422.97;4995621;28;20050;-83
2021/07/28 06:04:31;;;;;;;13.65;9.82;;;;;;;19.54;100.00;97426.91;5010730;28;20254;-84
2021/07/28 06:06:58;;;;;;;14.38;9.55;;;;;;;19.53;100.00;97421.81;5029405;28;20046;-85
2021/07/28 06:09:24;;;;;;;16.05;9.70;;;;;;;19.34;100.00;97422.78;5015784;28;20049;-84
2021/07/28 06:11:51;;;;;;;16.17;10.13;;;;;;;19.28;100.00;97432.50;5014775;28;20045;-84
2021/07/28 06:14:18;;;;;;;15.02;9.90;;;;;;;19.22;100.00;97437.56;5014696;28;20096;-83
2021/07/28 06:16:44;;;;;;;14.60;10.20;;;;;;;19.12;100.00;97443.72;5016443;28;20053;-83
2021/07/28 06:19:11;;;;;;;15.02;9.00;;;;;;;19.10;100.00;97448.78;5015409;28;20069;-84
2021/07/28 06:21:39;;;;;;;14.45;9.60;;;;;;;19.04;100.00;97457.75;5015329;28;20103;-85
2021/07/28 06:24:08;;;;;;;18.08;10.40;;;;;;;18.97;100.00;97468.63;5016727;28;20046;-84
2021/07/28 06:26:34;;;;;;;16.42;10.50;;;;;;;18.90;100.00;97469.31;5016724;28;20049;-86
2021/07/28 06:29:00;;;;;;;15.05;10.18;;;;;;;18.82;100.00;97489.59;5015813;28;20049;-81
2021/07/28 06:31:29;;;;;;;15.27;9.98;;;;;;;18.76;100.00;97490.31;5014010;28;20057;-82
2021/07/28 06:33:56;;;;;;;20.65;10.32;;;;;;;18.61;100.00;97511.22;5014658;28;20050;-82
2021/07/28 06:36:22;;;;;;;20.63;10.82;;;;;;;18.43;100.00;97490.97;5014967;28;20501;-85
2021/07/28 06:38:49;;;;;;;15.48;10.70;;;;;;;18.38;100.00;97494.81;5016193;28;20092;-83
2021/07/28 06:41:15;;;;;;;18.05;11.40;;;;;;;18.21;100.00;97483.59;5015631;28;20389;-85
2021/07/28 06:43:42;;;;;;;19.02;11.63;;;;;;;18.24;100.00;97485.59;5015088;28;20041;-84
2021/07/28 06:46:10;;;;;;;19.85;12.18;;;;;;;18.19;100.00;97502.34;5015897;28;20052;-85
2021/07/28 06:48:37;;;;;;;19.67;11.55;;;;;;;18.16;100.00;97503.09;5016078;28;20070;-85
2021/07/28 06:51:04;;;;;;;16.83;10.90;;;;;;;18.09;100.00;97498.28;5014731;28;20050;-84
2021/07/28 06:53:30;;;;;;;16.85;11.85;;;;;;;18.04;100.00;97496.63;5015618;28;20531;-85
2021/07/28 06:56:02;;;;;;;18.52;12.05;;;;;;;18.04;100.00;97491.16;5015354;28;20054;-85
2021/07/28 06:58:28;;;;;;;16.35;11.10;;;;;;;18.06;100.00;97490.81;5014584;28;20092;-85
2021/07/28 07:00:58;;;;;;;22.20;11.82;;;;;;;18.12;100.00;97494.78;5015039;28;20463;-87
2021/07/28 07:03:25;;;;;;;17.98;10.80;;;;;;;18.09;100.00;97495.56;5013630;28;20057;-84
2021/07/28 07:05:52;;;;;;;18.60;11.27;;;;;;;18.16;100.00;97494.84;5015125;28;20432;-86
2021/07/28 07:08:19;;;;;;;14.10;9.80;;;;;;;18.14;100.00;97489.75;5014299;28;20038;-83
2021/07/28 07:10:45;;;;;;;15.43;10.52;;;;;;;18.15;100.00;97501.50;5014459;28;20054;-84
2021/07/28 07:13:12;;;;;;;15.75;10.15;;;;;;;18.19;100.00;97494.13;5013526;28;20080;-83
2021/07/28 07:15:38;;;;;;;16.02;10.15;;;;;;;18.25;100.00;97504.41;4996330;28;20046;-84
2021/07/28 07:18:05;;;;;;;12.40;9.45;;;;;;;18.17;100.00;97508.19;5014482;28;20100;-85
2021/07/28 07:20:32;;;;;;;14.57;9.88;;;;;;;18.25;100.00;97498.91;5012904;28;20567;-84
2021/07/28 07:22:58;;;;;;;14.23;8.93;;;;;;;18.28;100.00;97494.66;5014318;28;20231;-86
2021/07/28 07:25:26;;;;;;;16.10;9.27;;;;;;;18.42;100.00;97481.97;5027319;28;20045;-85
2021/07/28 07:27:53;;;;;;;14.85;8.93;;;;;;;18.52;100.00;97481.38;5013567;28;20038;-83
2021/07/28 07:30:20;;;;;;;19.10;8.73;;;;;;;18.74;100.00;97474.19;5013530;28;20053;-84
2021/07/28 07:33:38;;;;;;;13.93;7.80;;;;;;;18.87;100.00;97461.84;5011884;28;20054;-85
2021/07/28 07:35:37;;;;;;;10.73;7.90;;;;;;;18.78;100.00;97455.84;5013518;28;20457;-84
2021/07/28 07:38:04;;;;;;;10.43;7.65;;;;;;;18.96;100.00;97467.03;5011711;28;20054;-83
2021/07/28 07:40:31;;;;;;;11.75;6.70;;;;;;;19.08;100.00;97451.13;5013292;28;20100;-85
2021/07/28 07:43:01;;;;;;;10.60;7.25;;;;;;;19.20;100.00;97455.59;5012078;28;20041;-83
2021/07/28 07:45:29;;;;;;;11.82;7.20;;;;;;;19.33;100.00;97450.63;5011570;28;20049;-83
2021/07/28 07:47:56;;;;;;;9.32;6.90;;;;;;;19.47;100.00;97457.06;5012289;28;20061;-82
2021/07/28 07:50:22;;;;;;;9.55;6.70;;;;;;;19.77;100.00;97451.44;5027122;28;20099;-81
2021/07/28 07:52:51;;;;;;;12.60;6.70;;;;;;;19.82;100.00;97442.88;5011414;28;20419;-83
2021/07/28 07:55:17;;;;;;;9.40;5.90;;;;;;;19.85;100.00;97442.09;5011320;28;20428;-84
2021/07/28 07:57:44;;;;;;;9.48;6.05;;;;;;;19.77;100.00;97435.75;5014869;28;20057;-84
2021/07/28 08:00:11;;;;;;;9.60;5.38;;;;;;;19.81;100.00;97444.03;5013438;28;20096;-83
2021/07/28 08:02:40;;;;;;;10.02;6.18;;;;;;;20.21;100.00;97435.72;5011129;28;20301;-85
2021/07/28 08:05:08;;;;;;;9.70;5.57;;;;;;;20.13;100.00;97433.31;5010080;28;20099;-83
2021/07/28 08:07:35;;;;;;;9.25;5.07;;;;;;;20.22;100.00;97425.50;5026481;28;20053;-81
2021/07/28 08:10:02;;;;;;;8.68;5.20;;;;;;;20.58;100.00;97419.06;5014558;28;20437;-85
2021/07/28 08:12:30;;;;;;;7.85;5.32;;;;;;;20.89;100.00;97432.19;5020149;28;20045;-82
2021/07/28 08:14:59;;;;;;;8.02;5.30;;;;;;;20.89;100.00;97434.16;5021215;28;20038;-83
2021/07/28 08:17:26;;;;;;;7.85;5.15;;;;;;;21.14;100.00;97424.03;5020658;28;20498;-84
2021/07/28 08:19:53;;;;;;;7.13;4.60;;;;;;;21.26;100.00;97434.72;5019602;28;20053;-85
2021/07/28 08:22:19;;;;;;;6.63;4.40;;;;;;;21.41;100.00;97432.78;5017152;28;20054;-85
2021/07/28 08:24:46;;;;;;;8.05;4.70;;;;;;;21.53;100.00;97429.66;5015136;28;20042;-85
2021/07/28 08:27:12;;;;;;;4.93;4.00;;;;;;;21.56;100.00;97437.94;5015720;28;20046;-85
2021/07/28 08:29:39;;;;;;;7.35;4.55;;;;;;;21.71;100.00;97431.25;5014855;28;20042;-83
2021/07/28 08:32:05;;;;;;;11.98;4.43;;;;;;;22.05;100.00;97439.16;5015384;28;20496;-85
2021/07/28 08:34:34;;;;;;;8.18;4.20;;;;;;;22.22;100.00;97433.63;5014819;28;20539;-84
2021/07/28 08:37:01;;;;;;;6.75;4.15;;;;;;;22.41;100.00;97437.16;5013871;28;20041;-84
2021/07/28 08:39:29;;;;;;;7.32;4.55;;;;;;;22.28;100.00;97436.78;5014257;28;20041;-86
2021/07/28 08:42:03;;;;;;;5.95;4.38;;;;;;;22.05;100.00;97434.44;5015430;28;20053;-82
2021/07/28 08:44:33;;;;;;;6.55;4.38;;;;;;;21.68;100.00;97442.25;5012007;28;20050;-85
2021/07/28 08:47:00;;;;;;;8.45;5.32;;;;;;;22.04;100.00;97449.41;5013365;28;20455;-84
2021/07/28 08:49:27;;;;;;;6.25;4.57;;;;;;;22.00;100.00;97450.59;5014647;28;20444;-86
2021/07/28 08:51:54;;;;;;;7.72;5.07;;;;;;;21.81;100.00;97450.97;5014118;28;20390;-85
2021/07/28 08:54:21;;;;;;;9.18;5.63;;;;;;;21.89;100.00;97445.06;5014522;28;20659;-83
2021/07/28 08:56:47;;;;;;;7.63;4.75;;;;;;;21.89;100.00;97447.81;5015481;28;20045;-86
2021/07/28 08:59:31;;;;;;;7.65;5.05;;;;;;;22.01;100.00;97444.69;5013569;28;20042;-81
2021/07/28 09:01:59;;;;;;;6.20;5.00;;;;;;;21.70;100.00;97442.69;5012900;28;20046;-83
2021/07/28 09:04:28;;;;;;;6.95;5.20;;;;;;;21.71;100.00;97452.50;5013924;28;20050;-82
2021/07/28 09:06:55;;;;;;;9.50;4.70;;;;;;;22.18;100.00;97448.59;5012242;28;20121;-84
2021/07/28 09:09:23;;;;;;;7.97;4.97;;;;;;;22.37;100.00;97452.94;5013541;28;20034;-84
2021/07/28 09:12:00;;;;;;;7.60;5.45;;;;;;;22.78;100.00;97443.00;4996227;28;20053;-85
2021/07/28 09:14:35;;;;;;;9.43;5.28;;;;;;;22.32;100.00;97452.13;5014503;28;20053;-83
2021/07/28 09:17:18;;;;;;;9.20;5.10;;;;;;;22.17;100.00;97447.06;5012983;28;20049;-84
2021/07/28 09:19:47;;;;;;;5.95;4.32;;;;;;;22.19;100.00;97453.75;5012572;28;20046;-82
2021/07/28 09:22:39;;;;;;;8.07;4.95;;;;;;;22.05;100.00;97466.72;5012859;28;20562;-82
2021/07/28 09:25:31;;;;;;;8.35;4.80;;;;;;;22.15;100.00;97460.41;5028119;28;20052;-83
2021/07/28 09:27:58;;;;;;;6.50;4.57;;;;;;;22.20;100.00;97462.78;5012837;28;20042;-85
2021/07/28 09:30:24;;;;;;;9.95;5.53;;;;;;;22.54;100.00;97465.91;5012670;28;20264;-84
2021/07/28 09:33:10;;;;;;;6.75;4.55;;;;;;;23.13;100.00;97455.88;5013842;28;20045;-82
2021/07/28 09:35:52;;;;;;;9.15;4.85;;;;;;;23.47;100.00;97446.66;5011847;28;20455;-86
2021/07/28 09:38:36;;;;;;;6.45;4.00;;;;;;;23.89;100.00;97456.66;5015454;28;20489;-83
2021/07/28 09:41:17;;;;;;;7.75;4.50;;;;;;;24.00;100.00;97462.88;5015173;28;20050;-85
2021/07/28 09:43:52;;;;;;;8.32;3.92;;;;;;;23.91;100.00;97447.94;5021693;28;20125;-85
2021/07/28 09:46:36;;;;;;;8.02;4.28;;;;;;;24.22;100.00;97449.69;5023253;28;20045;-85
2021/07/28 09:49:05;;;;;;;7.28;4.28;;;;;;;24.61;100.00;97436.25;5020661;28;20049;-83
2021/07/28 09:51:35;;;;;;;9.40;4.30;;;;;;;24.56;100.00;97439.47;5018857;28;20046;-85
2021/07/28 09:54:07;;;;;;;5.72;4.07;;;;;;;24.80;100.00;97439.66;5017945;28;20092;-85
2021/07/28 09:56:49;;;;;;;6.30;3.78;;;;;;;24.52;100.00;97449.78;5018838;28;20574;-83
2021/07/28 09:59:16;;;;;;;6.90;4.50;;;;;;;23.84;100.00;97451.56;5001151;28;20046;-84
2021/07/28 10:01:47;;;;;;;7.88;4.22;;;;;;;23.48;100.00;97439.16;5017054;28;20050;-86
2021/07/28 10:04:16;;;;;;;6.43;4.00;;;;;;;23.46;100.00;97441.56;5016802;28;20049;-83
2021/07/28 10:06:48;;;;;;;6.85;3.90;;;;;;;23.79;100.00;97437.38;5017789;28;20045;-85
2021/07/28 10:09:17;;;;;;;6.03;4.13;;;;;;;23.70;100.00;97442.56;5017448;28;20112;-83
2021/07/28 10:11:46;;;;;;;5.60;4.00;;;;;;;24.07;100.00;97449.00;5015682;28;20095;-84
2021/07/28 10:14:16;;;;;;;5.32;4.10;;;;;;;25.30;100.00;97437.81;5017286;28;20081;-84
2021/07/28 10:16:43;;;;;;;4.78;3.63;;;;;;;26.63;100.00;97425.03;5016960;28;20045;-83
2021/07/28 10:19:10;;;;;;;6.78;3.60;;;;;;;26.09;100.00;97425.19;5017079;28;20096;-83
2021/07/28 10:21:43;;;;;;;4.85;3.92;;;;;;;25.08;100.00;97434.56;5017669;28;20121;-84
2021/07/28 10:24:11;;;;;;;6.30;4.05;;;;;;;25.20;100.00;97430.44;5017132;28;20076;-85
2021/07/28 10:26:45;;;;;;;4.38;3.70;;;;;;;25.45;100.00;97435.66;5018147;28;20100;-82
2021/07/28 10:29:14;;;;;;;7.95;4.15;;;;;;;25.32;100.00;97429.88;5018455;28;20040;-84
2021/07/28 10:31:49;;;;;;;5.20;3.67;;;;;;;26.40;100.00;97443.28;5000705;28;20515;-82
2021/07/28 10:34:33;;;;;;;8.05;3.38;;;;;;;26.59;100.00;97437.00;5018296;28;20053;-85
2021/07/28 10:37:03;;;;;;;9.18;3.75;;;;;;;26.16;100.00;97432.63;5018512;28;20064;-85
2021/07/28 10:39:41;;;;;;;6.45;3.60;;;;;;;26.36;100.00;97431.47;5016401;28;20042;-85
2021/07/28 10:42:18;;;;;;;5.55;3.28;;;;;;;26.70;100.00;97438.78;5016941;28;20045;-84
2021/07/28 10:45:05;;;;;;;5.15;3.67;;;;;;;26.73;100.00;97443.50;5015750;28;20385;-85
2021/07/28 10:47:45;;;;;;;6.57;3.60;;;;;;;27.15;85.40;97445.47;5017029;28;20116;-84
2021/07/28 10:50:27;;;;;;;5.25;3.10;;;;;;;27.45;64.22;97444.44;5016938;28;20092;-84
2021/07/28 10:53:00;;;;;;;7.32;3.55;;;;;;;26.82;98.25;97447.31;5018633;28;20050;-83
2021/07/28 10:55:28;;;;;;;5.00;3.53;;;;;;;26.40;93.18;97434.97;5033873;28;20268;-85
2021/07/28 10:58:08;;;;;;;7.20;3.50;;;;;;;26.72;94.71;97441.91;5025968;28;20061;-85
2021/07/28 11:00:35;;;;;;;4.70;3.47;;;;;;;27.02;80.82;97434.19;5020670;28;20045;-85
2021/07/28 11:05:52;;;;;;;5.25;3.58;;;;;;;25.22;100.00;97423.28;5039702;28;20060;-83
2021/07/28 11:08:20;;;;;;;3.72;3.00;;;;;;;24.80;100.00;97428.56;5039368;28;20056;-81
2021/07/28 11:10:54;;;;;;;6.95;3.80;;;;;;;24.80;100.00;97434.91;5023193;28;20073;-86
2021/07/28 11:13:23;;;;;;;5.28;3.58;;;;;;;24.76;100.00;97442.41;5045532;28;20057;-82
2021/07/28 11:16:01;;;;;;;5.90;4.00;;;;;;;24.53;100.00;97450.59;5004410;28;20414;-85
2021/07/28 11:18:36;;;;;;;6.78;3.80;;;;;;;24.04;100.00;97447.06;5003845;28;20071;-85
2021/07/28 11:21:15;;;;;;;8.32;4.18;;;;;;;23.68;100.00;97442.97;5002604;28;20049;-87
2021/07/28 11:23:59;;;;;;;5.47;3.50;;;;;;;23.42;100.00;97449.84;5001065;28;20050;-86
2021/07/28 11:26:37;;;;;;;5.15;4.05;;;;;;;23.14;100.00;97457.47;5032843;28;20038;-84
2021/07/28 11:29:09;;;;;;;;;;;;;;;22.85;100.00;97465.06;5002373;28;20139;-87
2021/07/28 11:31:40;;;;;;;5.78;3.60;;;;;;;22.79;100.00;97472.16;5020609;28;19922;-82
2021/07/28 11:34:13;;;;;;;9.27;3.95;;;;;;;22.63;100.00;97469.06;5018260;28;20046;-86